Terminal Aerodrome Forecast
Issued by NWS Glasgow, MT

Current Version | Previous Version | Text Only | Print | Product List | Glossary On
Versions: 1 2 3 4 5 6 7 8 9 10 11 12 13 14
468
FTUS45 KGGW 191720
TAFGGW
TAF
KGGW 191720Z 1918/2018 32017G27KT P6SM FEW250
     FM200200 01010KT P6SM FEW200
     FM200900 VRB05KT P6SM SCT130
     FM201500 11008KT P6SM SCT080=

USA.gov is the U.S. government's official web portal to all federal, state and local government web resources and services.